Terminal Aerodrome Forecast
Issued by NWS

Home | Current Version | Previous Version | Text Only | Print | Product List | Glossary On
Versions: 1 2 3 4 5 6 7 8 9 10 11 12 13 14 15
969
FTUS45 KRIW 241328 AAA
TAFLND
TAF AMD
KLND 241328Z 2413/2512 VRB06KT P6SM -SN SCT025 OVC030
      TEMPO 2413/2415 5SM -SN BR BKN025
     FM241500 VRB04KT P6SM BKN040
     FM241700 VRB04KT P6SM SCT040
     FM250000 25006KT P6SM SKC=

USA.gov is the U.S. government's official web portal to all federal, state and local government web resources and services.